Time;durP1;ratioP1;P1;durP2;ratioP2;P2;SDS_P1;SDS_P2;PMS_P1;PMS_P2;Temp;Humidity;BMP_temperature;BMP_pressure;BME280_temperature;BME280_humidity;BME280_pressure;Samples;Min_cycle;Max_cycle;Signal;HPM_P1;HPM_P2
2022/06/21 00:00:15;;;;;;;2.40;2.20;;;14.30;99.90;;;;;;5034397;28;20459;-61
2022/06/21 00:02:42;;;;;;;2.53;2.33;;;14.30;99.90;;;;;;5034723;28;20456;-61
2022/06/21 00:05:15;;;;;;;2.30;2.00;;;14.20;99.90;;;;;;5034523;28;20453;-61
2022/06/21 00:07:42;;;;;;;3.60;2.17;;;14.30;99.90;;;;;;5034457;28;20476;-61
2022/06/21 00:10:14;;;;;;;2.73;2.47;;;14.30;99.90;;;;;;5034424;28;20491;-61
2022/06/21 00:12:41;;;;;;;1.97;1.83;;;14.30;99.90;;;;;;5034186;28;20892;-61
2022/06/21 00:15:10;;;;;;;2.10;2.00;;;14.30;99.90;;;;;;5034493;28;20805;-61
2022/06/21 00:17:36;;;;;;;5.80;2.20;;;14.20;99.90;;;;;;5034255;28;20449;-61
2022/06/21 00:20:04;;;;;;;4.10;2.17;;;14.20;99.90;;;;;;5034360;28;20499;-61
2022/06/21 00:22:30;;;;;;;3.10;2.00;;;14.20;99.90;;;;;;5034115;28;20449;-61
2022/06/21 00:24:57;;;;;;;2.03;1.93;;;14.10;99.90;;;;;;5034118;28;20445;-61
2022/06/21 00:27:24;;;;;;;2.30;1.80;;;14.20;99.90;;;;;;5033838;28;20542;-61
2022/06/21 00:29:50;;;;;;;4.40;3.20;;;14.20;99.90;;;;;;5033113;28;20454;-62
2022/06/21 00:32:20;;;;;;;2.60;2.33;;;14.10;99.90;;;;;;5034003;28;20482;-61
2022/06/21 00:34:47;;;;;;;2.50;2.30;;;14.10;99.90;;;;;;5034062;28;20488;-61
2022/06/21 00:37:16;;;;;;;2.50;2.20;;;14.00;99.90;;;;;;5033938;28;20801;-63
2022/06/21 00:39:43;;;;;;;2.27;2.17;;;14.10;99.90;;;;;;5033703;28;20453;-61
2022/06/21 00:42:21;;;;;;;2.43;2.30;;;14.20;99.90;;;;;;5033969;28;20540;-61
2022/06/21 00:45:03;;;;;;;3.40;2.43;;;14.20;99.90;;;;;;5033540;28;20839;-61
2022/06/21 00:47:36;;;;;;;2.60;2.40;;;14.10;99.90;;;;;;5033731;28;20475;-63
2022/06/21 00:50:10;;;;;;;2.47;2.27;;;14.10;99.90;;;;;;5033578;28;20449;-63
2022/06/21 00:52:42;;;;;;;6.03;2.40;;;14.00;99.90;;;;;;5033789;28;20455;-62
2022/06/21 00:55:14;;;;;;;4.37;2.20;;;13.90;99.90;;;;;;5033568;28;20539;-62
2022/06/21 00:57:46;;;;;;;3.37;2.37;;;13.90;99.90;;;;;;5033668;28;20455;-62
2022/06/21 01:00:30;;;;;;;4.00;3.10;;;13.90;99.90;;;;;;5033466;28;20460;-62
2022/06/21 01:03:01;;;;;;;2.97;2.70;;;13.90;99.90;;;;;;5033656;28;20449;-62
2022/06/21 01:05:31;;;;;;;3.50;2.87;;;13.90;99.90;;;;;;5033503;28;20449;-62
2022/06/21 01:07:58;;;;;;;3.10;2.90;;;13.90;99.90;;;;;;5033640;28;20481;-62
2022/06/21 01:10:26;;;;;;;5.20;3.40;;;13.90;99.90;;;;;;5033305;28;20449;-62
2022/06/21 01:12:57;;;;;;;5.53;2.73;;;13.90;99.90;;;;;;5033260;28;20449;-62
2022/06/21 01:15:29;;;;;;;4.33;2.93;;;13.90;99.90;;;;;;5033426;28;20442;-62
2022/06/21 01:18:01;;;;;;;3.37;2.67;;;13.90;99.90;;;;;;5033289;28;20453;-62
2022/06/21 01:20:31;;;;;;;6.37;3.30;;;13.90;99.90;;;;;;5033314;28;20453;-62
2022/06/21 01:23:06;;;;;;;6.33;3.47;;;13.90;99.90;;;;;;5033198;28;20896;-61
2022/06/21 01:25:42;;;;;;;2.63;2.43;;;13.90;99.90;;;;;;5032993;28;20453;-62
2022/06/21 01:28:11;;;;;;;3.77;3.03;;;13.90;99.90;;;;;;5033134;28;20473;-62
2022/06/21 01:30:38;;;;;;;6.10;3.27;;;13.90;99.90;;;;;;5033140;28;20453;-62
2022/06/21 01:33:06;;;;;;;4.03;3.17;;;13.90;99.90;;;;;;5033015;28;20453;-62
2022/06/21 01:35:38;;;;;;;2.83;2.63;;;13.90;99.90;;;;;;5032990;28;20887;-61
2022/06/21 01:38:08;;;;;;;4.67;3.00;;;13.90;99.90;;;;;;5032831;28;20453;-62
2022/06/21 01:40:40;;;;;;;3.33;3.00;;;13.90;99.90;;;;;;5032933;28;20804;-62
2022/06/21 01:43:11;;;;;;;4.30;2.90;;;13.90;99.90;;;;;;5032913;28;20477;-62
2022/06/21 01:45:42;;;;;;;3.80;3.33;;;14.00;99.90;;;;;;5032901;28;20804;-61
2022/06/21 01:48:13;;;;;;;3.87;3.33;;;13.90;99.90;;;;;;5032728;28;21015;-62
2022/06/21 01:50:43;;;;;;;5.73;2.90;;;13.90;99.90;;;;;;5032671;28;20480;-62
2022/06/21 01:53:10;;;;;;;3.20;2.93;;;13.90;99.90;;;;;;5032936;28;20448;-62
2022/06/21 01:55:43;;;;;;;3.40;3.13;;;13.80;99.90;;;;;;5032751;28;20864;-62
2022/06/21 01:58:16;;;;;;;3.40;3.10;;;13.80;99.90;;;;;;5032824;28;20536;-62
2022/06/21 02:00:50;;;;;;;5.53;3.30;;;13.70;99.90;;;;;;5032689;28;20445;-62
2022/06/21 02:03:20;;;;;;;4.10;3.70;;;13.70;99.90;;;;;;5032941;28;20805;-62
2022/06/21 02:05:51;;;;;;;3.63;3.10;;;13.60;99.90;;;;;;5032795;28;20457;-62
2022/06/21 02:08:22;;;;;;;3.93;3.50;;;13.60;99.90;;;;;;5032698;28;20473;-62
2022/06/21 02:10:52;;;;;;;3.80;3.30;;;13.60;99.90;;;;;;5032346;28;20459;-62
2022/06/21 02:13:26;;;;;;;3.77;3.33;;;13.60;99.90;;;;;;5032580;28;20463;-62
2022/06/21 02:15:57;;;;;;;6.13;3.30;;;13.50;99.90;;;;;;5032804;28;20455;-61
2022/06/21 02:18:28;;;;;;;5.63;3.40;;;13.60;99.90;;;;;;5032691;28;20547;-62
2022/06/21 02:20:58;;;;;;;7.93;3.30;;;13.70;99.90;;;;;;5032682;28;20536;-62
2022/06/21 02:23:26;;;;;;;3.37;2.97;;;13.70;99.90;;;;;;5032480;28;20449;-62
2022/06/21 02:25:55;;;;;;;3.53;3.23;;;13.60;99.90;;;;;;5032389;28;20451;-62
2022/06/21 02:28:25;;;;;;;3.60;3.30;;;13.60;99.90;;;;;;5032490;28;20813;-62
2022/06/21 02:30:54;;;;;;;3.07;2.87;;;13.60;99.90;;;;;;5032349;28;20921;-62
2022/06/21 02:33:23;;;;;;;5.93;3.40;;;13.60;99.90;;;;;;5032419;28;20449;-61
2022/06/21 02:35:54;;;;;;;3.60;3.07;;;13.60;99.90;;;;;;5032467;28;20453;-62
2022/06/21 02:38:24;;;;;;;3.00;2.80;;;13.60;99.90;;;;;;5032303;28;20456;-62
2022/06/21 02:40:56;;;;;;;3.73;2.77;;;13.60;99.90;;;;;;5032292;28;20484;-62
2022/06/21 02:43:29;;;;;;;4.50;2.80;;;13.70;99.90;;;;;;5032626;28;20832;-61
2022/06/21 02:46:00;;;;;;;5.40;3.60;;;13.70;99.90;;;;;;5032481;28;20534;-62
2022/06/21 02:48:30;;;;;;;5.83;3.50;;;13.70;99.90;;;;;;5032351;28;20460;-61
2022/06/21 02:51:01;;;;;;;4.60;2.90;;;13.70;99.90;;;;;;5032123;28;21112;-62
2022/06/21 02:53:31;;;;;;;2.80;2.57;;;13.70;99.90;;;;;;5033568;28;20959;-62
2022/06/21 02:56:05;;;;;;;3.77;2.80;;;13.70;99.90;;;;;;5035542;28;20948;-61
2022/06/21 02:58:38;;;;;;;5.90;3.13;;;13.70;99.90;;;;;;5035811;28;20449;-62
2022/06/21 03:01:10;;;;;;;5.83;3.43;;;13.60;99.90;;;;;;5035707;28;20449;-62
2022/06/21 03:03:37;;;;;;;3.60;3.30;;;13.60;99.90;;;;;;5035567;28;20449;-62
2022/06/21 03:06:07;;;;;;;3.40;3.20;;;13.60;99.90;;;;;;5035656;28;20449;-62
2022/06/21 03:08:35;;;;;;;8.00;3.67;;;13.50;99.90;;;;;;5035539;28;20449;-62
2022/06/21 03:11:02;;;;;;;3.97;3.10;;;13.50;99.90;;;;;;5035503;28;20449;-62
2022/06/21 03:13:32;;;;;;;7.10;3.60;;;13.50;99.90;;;;;;5035512;28;20449;-62
2022/06/21 03:16:05;;;;;;;5.90;3.30;;;13.60;99.90;;;;;;5035297;28;20511;-62
2022/06/21 03:18:38;;;;;;;5.10;3.50;;;13.60;99.90;;;;;;5035562;28;20449;-62
2022/06/21 03:21:06;;;;;;;3.47;3.17;;;13.60;99.90;;;;;;5035471;28;20445;-62
2022/06/21 03:23:34;;;;;;;14.93;3.90;;;13.60;99.90;;;;;;5035327;28;20452;-61
2022/06/21 03:26:03;;;;;;;4.77;3.57;;;13.60;99.90;;;;;;5035232;28;20449;-62
2022/06/21 03:28:33;;;;;;;3.50;3.20;;;13.70;99.90;;;;;;5034918;28;20492;-62
2022/06/21 03:31:07;;;;;;;4.40;3.00;;;13.70;99.90;;;;;;5035650;28;20782;-62
2022/06/21 03:33:36;;;;;;;2.93;2.70;;;13.70;99.90;;;;;;5035010;28;21042;-62
2022/06/21 03:36:07;;;;;;;5.97;3.50;;;13.80;99.90;;;;;;5035022;28;20456;-62
2022/06/21 03:38:34;;;;;;;4.70;3.43;;;13.70;99.90;;;;;;5034999;28;20464;-62
2022/06/21 03:43:49;;;;;;;6.47;3.30;;;13.60;99.90;;;;;;5034726;28;20471;-62
2022/06/21 03:46:23;;;;;;;4.10;3.70;;;13.50;99.90;;;;;;5031958;28;20500;-62
2022/06/21 03:48:55;;;;;;;6.77;3.87;;;13.50;99.90;;;;;;5033853;28;20481;-61
2022/06/21 03:51:27;;;;;;;3.97;3.67;;;13.50;99.90;;;;;;5034344;28;20990;-62
2022/06/21 03:53:58;;;;;;;4.70;3.23;;;13.40;99.90;;;;;;5034847;28;20455;-61
2022/06/21 03:56:30;;;;;;;4.97;3.60;;;13.50;99.90;;;;;;5034646;28;20449;-62
2022/06/21 03:59:04;;;;;;;13.20;4.80;;;13.50;99.90;;;;;;5034677;28;20492;-61
2022/06/21 04:01:39;;;;;;;8.40;3.60;;;13.60;99.90;;;;;;5034573;28;20456;-62
2022/06/21 04:04:11;;;;;;;4.83;3.80;;;13.70;99.90;;;;;;5034350;28;20449;-61
2022/06/21 04:06:47;;;;;;;6.83;4.00;;;13.70;99.90;;;;;;5034610;28;20869;-62
2022/06/21 04:09:20;;;;;;;7.23;3.67;;;13.80;99.90;;;;;;5034667;28;20916;-62
2022/06/21 04:11:50;;;;;;;7.00;3.13;;;13.90;99.90;;;;;;5034318;28;20601;-62
2022/06/21 04:14:23;;;;;;;3.57;2.87;;;14.00;99.90;;;;;;5034583;28;20449;-62
2022/06/21 04:16:57;;;;;;;4.47;3.60;;;14.00;99.90;;;;;;5034476;28;20460;-62
2022/06/21 04:19:29;;;;;;;5.50;3.23;;;14.10;99.90;;;;;;5033436;28;20452;-61
2022/06/21 04:22:02;;;;;;;4.90;4.10;;;14.10;99.90;;;;;;5034165;28;20453;-61
2022/06/21 04:24:35;;;;;;;4.17;3.50;;;14.10;99.90;;;;;;5034143;28;20879;-61
2022/06/21 04:27:07;;;;;;;9.40;3.87;;;14.20;99.90;;;;;;5034296;28;20446;-62
2022/06/21 04:29:38;;;;;;;3.60;3.30;;;14.30;99.90;;;;;;5034000;28;20489;-62
2022/06/21 04:32:13;;;;;;;3.50;3.20;;;14.40;99.90;;;;;;5034068;28;20821;-62
2022/06/21 04:34:44;;;;;;;4.03;3.17;;;14.50;99.90;;;;;;5033892;28;20991;-62
2022/06/21 04:37:15;;;;;;;4.23;3.37;;;14.60;99.90;;;;;;5033769;28;20556;-62
2022/06/21 04:39:49;;;;;;;4.80;3.10;;;14.50;99.90;;;;;;5033942;28;20547;-62
2022/06/21 04:42:23;;;;;;;7.20;3.30;;;14.60;99.90;;;;;;5033893;28;20485;-61
2022/06/21 04:44:56;;;;;;;12.80;3.63;;;14.70;99.90;;;;;;5033557;28;20473;-61
2022/06/21 04:47:32;;;;;;;4.53;3.17;;;14.70;99.90;;;;;;5033739;28;20453;-61
2022/06/21 04:50:03;;;;;;;3.40;3.10;;;14.80;99.90;;;;;;5033515;28;20487;-62
2022/06/21 04:52:40;;;;;;;5.13;3.90;;;14.70;99.90;;;;;;5033710;28;20536;-62
2022/06/21 04:55:14;;;;;;;4.80;3.30;;;14.80;99.90;;;;;;5033389;28;20445;-61
2022/06/21 04:57:41;;;;;;;5.00;3.53;;;14.90;99.90;;;;;;5033471;28;20463;-61
2022/06/21 05:00:14;;;;;;;3.93;3.13;;;14.90;99.90;;;;;;5033312;28;20445;-62
2022/06/21 05:02:47;;;;;;;4.17;2.90;;;14.90;99.90;;;;;;5033344;28;20452;-62
2022/06/21 05:05:18;;;;;;;11.43;3.63;;;14.80;99.90;;;;;;5033319;28;20944;-61
2022/06/21 05:07:48;;;;;;;8.10;3.70;;;14.80;99.90;;;;;;5033302;28;20475;-61
2022/06/21 05:10:17;;;;;;;7.53;4.30;;;14.70;99.90;;;;;;5033189;28;20516;-61
2022/06/21 05:12:46;;;;;;;4.80;3.50;;;14.70;99.90;;;;;;5033102;28;20483;-62
2022/06/21 05:15:19;;;;;;;5.30;4.20;;;14.70;99.90;;;;;;5033000;28;20982;-62
2022/06/21 05:17:50;;;;;;;5.40;3.90;;;14.80;99.90;;;;;;5032973;28;20547;-61
2022/06/21 05:20:21;;;;;;;7.77;3.70;;;14.90;99.90;;;;;;5033191;28;20485;-61
2022/06/21 05:22:49;;;;;;;5.03;4.03;;;14.90;99.90;;;;;;5033084;28;20494;-61
2022/06/21 05:25:24;;;;;;;4.70;3.20;;;15.00;99.90;;;;;;5032919;28;20450;-61
2022/06/21 05:27:55;;;;;;;6.80;3.73;;;15.00;99.90;;;;;;5033201;28;20449;-61
2022/06/21 05:30:28;;;;;;;8.80;4.37;;;14.90;99.90;;;;;;5032860;28;20476;-61
2022/06/21 05:33:01;;;;;;;5.97;4.50;;;14.90;99.90;;;;;;5032779;28;20536;-61
2022/06/21 05:35:32;;;;;;;5.10;3.50;;;15.10;99.90;;;;;;5032777;28;20456;-62
2022/06/21 05:38:04;;;;;;;9.33;4.27;;;15.30;99.90;;;;;;5033136;28;20481;-61
2022/06/21 05:40:37;;;;;;;5.23;4.17;;;15.40;99.90;;;;;;5033076;28;20543;-61
2022/06/21 05:43:03;;;;;;;6.17;3.63;;;15.50;99.90;;;;;;5032833;28;20559;-61
2022/06/21 05:45:34;;;;;;;5.43;3.47;;;15.80;99.90;;;;;;5032784;28;20908;-61
2022/06/21 05:48:04;;;;;;;3.60;3.33;;;15.90;99.90;;;;;;5032587;28;20467;-61
2022/06/21 05:50:35;;;;;;;4.27;3.57;;;16.00;99.90;;;;;;5032716;28;20480;-61
2022/06/21 05:53:10;;;;;;;4.37;3.70;;;16.10;99.90;;;;;;5032788;28;20446;-61
2022/06/21 05:55:41;;;;;;;3.93;3.53;;;16.30;99.90;;;;;;5032466;28;20451;-61
2022/06/21 05:58:17;;;;;;;3.63;3.27;;;16.40;99.90;;;;;;5032651;28;20548;-61
2022/06/21 06:00:48;;;;;;;7.83;3.73;;;16.60;99.90;;;;;;5032427;28;20461;-61
2022/06/21 06:03:22;;;;;;;4.17;3.17;;;16.70;99.90;;;;;;5032737;28;20460;-61
2022/06/21 06:05:49;;;;;;;6.83;2.90;;;16.80;99.90;;;;;;5032544;28;20507;-61
2022/06/21 06:08:23;;;;;;;3.30;3.00;;;16.80;99.90;;;;;;5032862;28;20461;-61
2022/06/21 06:10:50;;;;;;;8.13;3.57;;;16.60;99.90;;;;;;5032873;28;20602;-61
2022/06/21 06:13:21;;;;;;;6.30;3.67;;;16.70;99.90;;;;;;5032213;28;20445;-61
2022/06/21 06:15:52;;;;;;;7.20;3.10;;;16.80;99.90;;;;;;5032577;28;20453;-61
2022/06/21 06:18:23;;;;;;;7.30;3.13;;;16.90;99.90;;;;;;5032444;28;20456;-61
2022/06/21 06:20:57;;;;;;;9.40;3.23;;;16.90;99.90;;;;;;5032435;28;20485;-61
2022/06/21 06:23:32;;;;;;;3.93;2.80;;;16.90;99.90;;;;;;5032262;28;20453;-61
2022/06/21 06:26:03;;;;;;;5.57;2.97;;;17.00;99.90;;;;;;5032546;28;20481;-61
2022/06/21 06:28:33;;;;;;;3.37;2.63;;;17.10;99.90;;;;;;5039943;28;20935;-61
2022/06/21 06:31:05;;;;;;;2.97;2.53;;;17.10;99.90;;;;;;5055112;28;20839;-61
2022/06/21 06:33:38;;;;;;;4.00;2.20;;;17.00;99.90;;;;;;5054811;28;20457;-59
2022/06/21 06:36:09;;;;;;;4.43;2.83;;;17.10;99.90;;;;;;5058608;28;20958;-59
2022/06/21 06:38:36;;;;;;;5.93;2.53;;;17.30;99.90;;;;;;5066552;28;20452;-60
2022/06/21 06:41:08;;;;;;;8.00;3.00;;;17.30;99.90;;;;;;5055707;28;20486;-59
2022/06/21 06:43:40;;;;;;;5.83;2.50;;;17.30;99.90;;;;;;5055706;28;20476;-54
2022/06/21 06:46:11;;;;;;;3.50;2.80;;;17.30;99.90;;;;;;5054965;28;20590;-58
2022/06/21 06:48:40;;;;;;;3.67;2.60;;;17.40;99.90;;;;;;5054848;28;20466;-58
2022/06/21 06:51:39;;;;;;;3.43;1.90;;;17.50;99.90;;;;;;5054456;28;20522;-58
2022/06/21 06:54:10;;;;;;;4.13;2.20;;;17.60;99.90;;;;;;5049685;28;20455;-58
2022/06/21 06:56:48;;;;;;;3.97;2.20;;;17.70;99.90;;;;;;5053437;28;20539;-59
2022/06/21 06:59:17;;;;;;;6.30;2.60;;;17.80;99.90;;;;;;5052980;28;20452;-59
2022/06/21 07:01:49;;;;;;;7.10;3.47;;;17.70;99.90;;;;;;5055517;28;20554;-58
2022/06/21 07:04:19;;;;;;;3.00;2.03;;;17.70;99.90;;;;;;5055543;28;20451;-57
2022/06/21 07:06:47;;;;;;;4.50;2.17;;;17.80;99.90;;;;;;5053023;28;20485;-59
2022/06/21 07:09:19;;;;;;;2.90;1.70;;;17.80;99.90;;;;;;5055127;28;20444;-59
2022/06/21 07:11:53;;;;;;;6.87;2.07;;;17.90;99.90;;;;;;5068292;28;20479;-59
2022/06/21 07:14:22;;;;;;;9.30;2.17;;;18.00;99.90;;;;;;5055406;28;20868;-59
2022/06/21 07:16:53;;;;;;;2.37;1.63;;;18.10;99.90;;;;;;5054953;28;20474;-59
2022/06/21 07:19:21;;;;;;;8.23;2.20;;;18.10;99.90;;;;;;5050460;28;20449;-59
2022/06/21 07:21:49;;;;;;;2.17;1.83;;;18.20;99.90;;;;;;5049251;28;20535;-56
2022/06/21 07:24:18;;;;;;;3.20;1.90;;;18.40;99.90;;;;;;5053856;28;20781;-56
2022/06/21 07:26:49;;;;;;;4.47;1.67;;;18.50;99.90;;;;;;5053642;28;20459;-59
2022/06/21 07:29:21;;;;;;;2.43;1.90;;;18.60;99.90;;;;;;5052314;28;20985;-54
2022/06/21 07:31:52;;;;;;;6.90;1.80;;;18.50;99.90;;;;;;5050790;28;20480;-55
2022/06/21 07:34:24;;;;;;;2.20;1.60;;;18.50;99.90;;;;;;5034922;28;20547;-57
2022/06/21 07:36:56;;;;;;;3.90;2.00;;;18.60;99.90;;;;;;5043284;28;20452;-52
2022/06/21 07:39:27;;;;;;;2.30;2.10;;;18.80;99.90;;;;;;5054231;28;20467;-57
2022/06/21 07:42:00;;;;;;;6.17;2.10;;;18.90;99.90;;;;;;5052494;28;20995;-57
2022/06/21 07:44:34;;;;;;;4.13;1.70;;;19.00;99.90;;;;;;5048071;28;20487;-58
2022/06/21 07:47:04;;;;;;;4.73;1.70;;;19.00;99.90;;;;;;5044295;28;20852;-56
2022/06/21 07:49:38;;;;;;;2.70;1.50;;;19.00;99.90;;;;;;5051178;28;20499;-58
2022/06/21 07:52:09;;;;;;;2.90;1.50;;;19.10;99.90;;;;;;5048815;28;20489;-58
2022/06/21 07:54:40;;;;;;;4.97;2.13;;;19.10;99.90;;;;;;5050304;28;20459;-58
2022/06/21 07:57:11;;;;;;;3.43;1.83;;;19.20;99.90;;;;;;5053649;28;20451;-59
2022/06/21 07:59:43;;;;;;;2.80;1.80;;;19.40;99.90;;;;;;5054291;28;20916;-59
2022/06/21 08:07:57;;;;;;;4.60;2.43;;;19.70;99.90;;;;;;5052582;28;20463;-59
2022/06/21 08:10:30;;;;;;;2.33;1.43;;;19.90;99.90;;;;;;5045736;28;20983;-56
2022/06/21 08:12:56;;;;;;;7.23;1.90;;;20.00;99.90;;;;;;5054282;28;20456;-54
2022/06/21 08:15:27;;;;;;;2.53;1.40;;;20.20;99.90;;;;;;5034366;28;20457;-56
2022/06/21 08:17:59;;;;;;;5.00;1.30;;;20.10;99.90;;;;;;5034066;28;20541;-58
2022/06/21 08:20:32;;;;;;;2.75;1.48;;;20.30;99.90;;;;;;5045534;28;20797;-60
2022/06/21 08:23:04;;;;;;;2.73;1.50;;;20.30;99.90;;;;;;5041993;28;20190;-58
2022/06/21 08:25:37;;;;;;;2.90;2.37;;;20.50;99.90;;;;;;5050757;28;20868;-57
2022/06/21 08:28:12;;;;;;;1.53;1.27;;;20.60;99.90;;;;;;5052902;28;20455;-59
2022/06/21 08:30:48;;;;;;;7.93;1.80;;;20.80;99.90;;;;;;5044878;28;20511;-59
2022/06/21 08:33:18;;;;;;;1.43;1.23;;;20.90;99.90;;;;;;5034308;28;20455;-59
2022/06/21 08:35:52;;;;;;;2.80;1.60;;;21.00;99.90;;;;;;5034359;28;20453;-58
2022/06/21 08:38:24;;;;;;;2.60;1.30;;;21.10;99.90;;;;;;5043244;28;20449;-58
2022/06/21 08:44:47;;;;;;;4.53;1.67;;;21.30;99.90;;;;;;5033159;28;20467;-57
2022/06/21 08:47:54;;;;;;;2.97;1.37;;;21.50;99.90;;;;;;5048181;28;20477;-58
2022/06/21 08:50:49;;;;;;;3.00;1.30;;;21.50;99.90;;;;;;5032960;28;21000;-57
2022/06/21 08:53:29;;;;;;;3.23;1.43;;;21.70;99.90;;;;;;5039483;28;20543;-56
2022/06/21 08:56:02;;;;;;;1.90;1.37;;;21.80;99.90;;;;;;5033626;28;20808;-57
2022/06/21 08:58:42;;;;;;;2.00;1.20;;;21.90;99.90;;;;;;5043072;28;20980;-51
2022/06/21 09:01:17;;;;;;;2.23;1.60;;;22.00;99.90;;;;;;5052153;28;20555;-49
2022/06/21 09:04:00;;;;;;;2.93;1.43;;;22.10;99.90;;;;;;5051850;28;20458;-52
2022/06/21 09:06:43;;;;;;;3.80;1.23;;;22.10;99.90;;;;;;5053279;28;20487;-53
2022/06/21 09:09:35;;;;;;;2.23;1.67;;;22.00;99.90;;;;;;5054349;28;20543;-59
2022/06/21 09:12:10;;;;;;;2.20;1.43;;;22.10;99.90;;;;;;5052910;28;20476;-59
2022/06/21 09:14:53;;;;;;;4.40;1.50;;;22.20;99.90;;;;;;5052521;28;20444;-58
2022/06/21 09:17:26;;;;;;;1.83;1.03;;;22.30;99.90;;;;;;5051786;28;20448;-58
2022/06/21 09:20:08;;;;;;;1.40;1.30;;;22.10;99.90;;;;;;5051521;28;20452;-58
2022/06/21 09:22:47;;;;;;;3.17;1.77;;;22.30;99.90;;;;;;5041822;28;20957;-59
2022/06/21 09:25:20;;;;;;;3.40;1.37;;;22.50;99.90;;;;;;5052254;28;20440;-59
2022/06/21 09:27:49;;;;;;;3.03;1.10;;;22.70;99.90;;;;;;5050444;28;20946;-58
2022/06/21 09:30:20;;;;;;;3.57;0.97;;;22.90;99.90;;;;;;5052452;28;20444;-59
2022/06/21 09:32:59;;;;;;;1.83;1.00;;;23.10;99.90;;;;;;5051315;28;20463;-57
2022/06/21 09:35:36;;;;;;;1.83;1.03;;;23.00;99.90;;;;;;5052256;28;20812;-57
2022/06/21 09:38:16;;;;;;;2.60;1.10;;;23.20;99.90;;;;;;5051349;28;20456;-56
2022/06/21 09:40:47;;;;;;;2.17;1.20;;;23.30;99.90;;;;;;5034833;28;20461;-56
2022/06/21 09:43:24;;;;;;;3.07;1.30;;;23.50;99.90;;;;;;5044044;28;20500;-59
2022/06/21 09:46:00;;;;;;;2.10;1.00;;;23.50;99.90;;;;;;5050147;28;20974;-57
2022/06/21 09:48:31;;;;;;;2.27;1.37;;;23.60;99.90;;;;;;5050204;28;20458;-57
2022/06/21 09:51:04;;;;;;;3.27;1.50;;;23.40;99.90;;;;;;5052514;28;20494;-57
2022/06/21 09:53:44;;;;;;;5.40;1.20;;;23.60;99.90;;;;;;5052586;28;20815;-57
2022/06/21 09:56:23;;;;;;;1.60;1.00;;;23.70;99.90;;;;;;5052510;28;20480;-57
2022/06/21 09:58:57;;;;;;;7.63;1.50;;;23.70;99.90;;;;;;5052694;28;20539;-57
2022/06/21 10:01:31;;;;;;;2.50;1.33;;;23.80;99.90;;;;;;5052569;28;20810;-57
2022/06/21 10:04:05;;;;;;;2.83;1.30;;;23.90;98.90;;;;;;5056608;28;20452;-57
2022/06/21 10:06:40;;;;;;;6.87;1.47;;;24.00;97.90;;;;;;5056521;28;20849;-57
2022/06/21 10:09:23;;;;;;;3.90;1.40;;;24.00;99.90;;;;;;5056985;28;20542;-56
2022/06/21 10:12:02;;;;;;;4.83;1.73;;;24.10;99.90;;;;;;5056426;28;20575;-57
2022/06/21 10:14:51;;;;;;;1.70;1.30;;;24.20;99.90;;;;;;5056365;28;20451;-57
2022/06/21 10:17:45;;;;;;;2.43;1.67;;;24.40;99.90;;;;;;5056560;28;20805;-57
2022/06/21 10:20:26;;;;;;;3.27;1.23;;;24.40;98.00;;;;;;5056389;28;20444;-57
2022/06/21 10:23:06;;;;;;;5.43;1.40;;;24.50;99.90;;;;;;5056250;28;20951;-59
2022/06/21 10:25:51;;;;;;;4.07;1.20;;;24.70;99.90;;;;;;5056451;28;20451;-58
2022/06/21 10:28:38;;;;;;;4.07;1.00;;;24.80;98.50;;;;;;5056165;28;20870;-57
2022/06/21 10:31:27;;;;;;;2.03;1.27;;;24.90;98.00;;;;;;5052923;28;20478;-56
2022/06/21 10:34:17;;;;;;;1.47;1.20;;;24.90;96.90;;;;;;5042112;28;21049;-58
2022/06/21 10:36:56;;;;;;;2.37;1.00;;;24.90;96.50;;;;;;5057457;28;20449;-53
2022/06/21 10:39:49;;;;;;;1.40;1.00;;;25.00;96.00;;;;;;5055352;28;20444;-56
2022/06/21 10:42:47;;;;;;;2.57;1.30;;;25.10;96.30;;;;;;5055586;28;20990;-57
2022/06/21 10:45:24;;;;;;;2.73;1.13;;;25.20;95.00;;;;;;5038557;28;20961;-52
2022/06/21 10:48:12;;;;;;;6.90;1.30;;;25.40;96.20;;;;;;5054603;28;20488;-56
2022/06/21 10:50:49;;;;;;;1.63;1.20;;;25.40;96.30;;;;;;5055454;28;20451;-58
2022/06/21 10:53:39;;;;;;;3.00;1.13;;;25.60;96.10;;;;;;5054640;28;20443;-58
2022/06/21 10:59:18;;;;;;;3.33;1.57;;;25.80;95.30;;;;;;5053712;28;20451;-58
2022/06/21 11:01:46;;;;;;;4.57;1.37;;;;;;;;;;5047628;28;20464;-56
2022/06/21 11:04:25;;;;;;;3.83;1.60;;;;;;;;;;5054505;28;20456;-57
2022/06/21 11:06:55;;;;;;;2.20;1.33;;;;;;;;;;5055354;28;20455;-58
2022/06/21 11:09:26;;;;;;;1.37;0.90;;;;;;;;;;5042010;28;20447;-55
2022/06/21 11:11:56;;;;;;;1.73;1.23;;;;;;;;;;5050347;28;20479;-59
2022/06/21 11:14:33;;;;;;;4.40;1.30;;;;;;;;;;5033939;28;20465;-55
2022/06/21 11:17:06;;;;;;;1.60;1.07;;;;;;;;;;5043680;28;20208;-57
2022/06/21 11:19:37;;;;;;;3.83;1.67;;;;;;;;;;5054278;28;20444;-52
2022/06/21 11:22:12;;;;;;;1.67;1.30;;;;;;;;;;5051059;28;20456;-58
2022/06/21 11:24:45;;;;;;;4.97;1.40;;;;;;;;;;5054974;28;20870;-58
2022/06/21 11:27:15;;;;;;;1.80;1.20;;;;;;;;;;5069953;28;20456;-55
2022/06/21 11:29:47;;;;;;;3.33;1.20;;;;;;;;;;5053687;28;20455;-58
2022/06/21 11:32:18;;;;;;;1.67;1.30;;;;;;;;;;5054911;28;20798;-59
2022/06/21 11:34:50;;;;;;;1.70;1.27;;;;;;;;;;5055034;28;20793;-59
2022/06/21 11:37:23;;;;;;;1.40;1.10;;;;;;;;;;5054681;28;20578;-56
2022/06/21 11:39:55;;;;;;;4.10;1.23;;;;;;;;;;5054640;28;20444;-58
2022/06/21 11:42:24;;;;;;;2.33;1.03;;;;;;;;;;5059518;28;21000;-58
2022/06/21 11:45:14;;;;;;;3.63;1.00;;;;;;;;;;5074734;28;20482;-58
2022/06/21 11:47:58;;;;;;;2.93;0.90;;;;;;;;;;5074761;28;20966;-48
2022/06/21 11:50:27;;;;;;;1.90;1.20;;;;;;;;;;5063735;28;20456;-58
2022/06/21 11:53:13;;;;;;;1.77;1.00;;;;;;;;;;5034760;28;21008;-58
2022/06/21 11:55:41;;;;;;;1.13;0.97;;;;;;;;;;5045437;28;20459;-58
2022/06/21 11:58:14;;;;;;;3.33;1.40;;;;;;;;;;5053334;28;20542;-58
2022/06/21 12:00:47;;;;;;;4.37;3.43;;;;;;;;;;5046361;28;20500;-56
2022/06/21 12:03:17;;;;;;;4.17;1.23;;;;;;;;;;5034261;28;20789;-56
2022/06/21 12:05:46;;;;;;;2.73;1.30;;;;;;;;;;5049463;28;20463;-56
2022/06/21 12:08:16;;;;;;;1.80;0.90;;;;;;;;;;5051868;28;20451;-51
2022/06/21 12:10:50;;;;;;;2.20;1.20;;;;;;;;;;5043507;28;20887;-57
2022/06/21 12:13:28;;;;;;;2.10;1.10;;;;;;;;;;5053406;28;20224;-57
2022/06/21 12:16:04;;;;;;;1.85;1.00;;;;;;;;;;5055199;28;20463;-56
2022/06/21 12:18:32;;;;;;;1.63;0.90;;;;;;;;;;5058091;28;20280;-57
2022/06/21 12:21:01;;;;;;;1.20;0.90;;;;;;;;;;5051373;28;20455;-57
2022/06/21 12:23:32;;;;;;;2.37;1.17;;;;;;;;;;5052469;28;20460;-56
2022/06/21 12:25:59;;;;;;;2.63;1.10;;;;;;;;;;5037301;28;20461;-53
2022/06/21 12:28:27;;;;;;;1.50;1.40;;;27.40;80.80;;;;;;5052803;28;20459;-56
2022/06/21 12:30:55;;;;;;;2.90;1.00;;;27.40;78.00;;;;;;5049635;28;20462;-55
2022/06/21 12:33:28;;;;;;;1.10;0.90;;;27.40;76.00;;;;;;5033722;28;20588;-59
2022/06/21 12:36:21;;;;;;;3.90;1.27;;;27.40;77.10;;;;;;5052262;28;20460;-59
2022/06/21 12:38:54;;;;;;;2.50;1.37;;;27.00;75.50;;;;;;5056093;28;20471;-59
2022/06/21 12:41:29;;;;;;;1.90;1.10;;;27.10;78.40;;;;;;5052750;28;20478;-57
2022/06/21 12:44:02;;;;;;;2.13;1.00;;;27.10;76.30;;;;;;5035421;28;21010;-57
2022/06/21 12:46:38;;;;;;;3.03;1.37;;;27.20;76.70;;;;;;5034008;28;21018;-58
2022/06/21 12:49:28;;;;;;;3.70;1.03;;;27.10;76.30;;;;;;5052673;28;20831;-58
2022/06/21 12:51:59;;;;;;;2.67;1.43;;;27.30;74.00;;;;;;5052539;28;20537;-58
2022/06/21 12:54:55;;;;;;;2.17;1.33;;;27.40;73.90;;;;;;5052526;28;20452;-58
2022/06/21 12:57:37;;;;;;;3.40;1.27;;;27.10;71.90;;;;;;5051913;28;20444;-57
2022/06/21 13:00:11;;;;;;;2.20;1.03;;;27.20;72.70;;;;;;5053209;28;20455;-58
2022/06/21 13:02:57;;;;;;;1.90;0.97;;;27.20;71.80;;;;;;5053210;28;20539;-58
2022/06/21 13:05:57;;;;;;;1.10;0.90;;;27.30;73.50;;;;;;5053053;28;20444;-58
2022/06/21 13:08:47;;;;;;;1.97;1.03;;;27.50;72.20;;;;;;5045152;28;20450;-58
2022/06/21 13:11:27;;;;;;;2.17;0.90;;;27.60;72.20;;;;;;5053332;28;20535;-58
2022/06/21 13:14:22;;;;;;;1.50;1.10;;;27.60;72.00;;;;;;5052948;28;20943;-57
2022/06/21 13:17:00;;;;;;;1.70;1.20;;;27.80;70.70;;;;;;5052833;28;20936;-58
2022/06/21 13:19:37;;;;;;;1.80;0.93;;;27.90;72.90;;;;;;5053053;28;20502;-57
2022/06/21 13:22:20;;;;;;;1.30;0.90;;;27.90;72.10;;;;;;5052893;28;20458;-59
2022/06/21 13:24:57;;;;;;;1.50;0.90;;;27.60;69.10;;;;;;5053066;28;20459;-58
2022/06/21 13:27:36;;;;;;;1.63;0.80;;;27.50;70.40;;;;;;5052979;28;20444;-57
2022/06/21 13:30:19;;;;;;;1.80;0.93;;;27.30;69.20;;;;;;5052857;28;20535;-58
2022/06/21 13:32:51;;;;;;;1.93;1.00;;;27.50;69.30;;;;;;5052639;28;20572;-58
2022/06/21 13:35:24;;;;;;;2.77;0.97;;;27.70;69.30;;;;;;5052858;28;20448;-58
2022/06/21 13:37:59;;;;;;;1.20;0.90;;;27.70;70.10;;;;;;5052556;28;20536;-58
2022/06/21 13:40:32;;;;;;;3.13;1.00;;;27.90;69.30;;;;;;5052724;28;20451;-58
2022/06/21 13:43:06;;;;;;;1.30;0.97;;;28.00;67.60;;;;;;5052649;28;20475;-58
2022/06/21 13:45:43;;;;;;;2.63;1.10;;;28.00;66.10;;;;;;5052755;28;20448;-59